»·PEaware :: SWA8702 KSNA-KPHX

SWA8702 :: KSNA-KPHX

FLIGHT INFORMATION

Flight Status: Arrived
Operator:
Southwest Airlines
More flights by this operator :: More flights under this callsign
Pilot: Paul A. (20189)
Aircraft: BOEING 737-700
(B737)
More flights by this aircraft type
Origin: KSNA John Wayne-Orange Co
United States
Destination: KPHX Phoenix Sky Harbor Intl
United States
More flights between these airports :: More routes between these airports
Route: +STAYY1 CNERY BLH HYDRR1
File this flight plan on PilotEdge
Remarks:
Altitude:
(Current/Filed)
33,000ft
Speed:
(Current/Filed)
455kts
Departed: 05-Nov-18 08:20 AM
Arrived: 05-Nov-18 09:08 AM
Distance/Time
Traveled:
294nm/0:48
Distance/Time
To Go:
Arrived

Flight Plot

Page will automatically refresh every two minutes.

Flight plan parsing failed; only flown route is shown


Map Options




Map Legend


Flown Route
Filed Route
Departure Airport
Arrival Airport
Navaid (VOR, NDB)
Fix

Horizontal Profiles

Position Reports

Time Latitude Longitude Heading Altitude Ground
Speed
05-Nov-18 08:04 33.675362 -117.864874 117 63ft 0kts
05-Nov-18 08:05 33.675362 -117.864874 117 63ft 0kts
05-Nov-18 08:06 33.675362 -117.864874 117 63ft 0kts
05-Nov-18 08:07 33.675362 -117.864874 117 63ft 0kts
05-Nov-18 08:08 33.675362 -117.864874 117 63ft 0kts
05-Nov-18 08:09 33.675362 -117.864874 117 63ft 0kts
05-Nov-18 08:09 33.675362 -117.864874 117 63ft 0kts
05-Nov-18 08:11 33.675362 -117.864874 117 63ft 0kts
05-Nov-18 08:11 33.675362 -117.864874 117 63ft 0kts
05-Nov-18 08:13 33.675362 -117.864874 117 63ft 0kts
05-Nov-18 08:14 33.675504 -117.865198 117 63ft 2kts
05-Nov-18 08:14 33.675553 -117.865681 72 63ft 0kts
05-Nov-18 08:15 33.675553 -117.865681 72 63ft 0kts
05-Nov-18 08:17 33.675553 -117.865681 72 63ft 0kts
05-Nov-18 08:18 33.675553 -117.865681 72 63ft 0kts
05-Nov-18 08:19 33.675553 -117.865681 72 63ft 0kts
05-Nov-18 08:20 33.677080 -117.864573 27 63ft 29kts
05-Nov-18 08:21 33.680683 -117.863231 299 63ft 13kts
05-Nov-18 08:22 33.681268 -117.865242 219 63ft 14kts
05-Nov-18 08:23 33.652424 -117.883518 206 1439ft 172kts
05-Nov-18 08:24 33.601331 -117.898279 191 3982ft 237kts
05-Nov-18 08:25 33.531269 -117.876525 147 6831ft 292kts
05-Nov-18 08:26 33.482932 -117.795012 109 10202ft 312kts
05-Nov-18 08:27 33.485497 -117.686263 67 12192ft 365kts
05-Nov-18 08:28 33.538410 -117.578053 56 14767ft 388kts
05-Nov-18 08:29 33.571038 -117.453503 97 17338ft 417kts
05-Nov-18 08:30 33.532154 -117.319530 111 19677ft 437kts
05-Nov-18 08:31 33.502591 -117.175608 91 21740ft 455kts
05-Nov-18 08:32 33.500563 -117.021060 90 23597ft 471kts
05-Nov-18 08:33 33.497515 -116.861841 89 25311ft 484kts
05-Nov-18 08:34 33.495951 -116.698609 89 26879ft 495kts
05-Nov-18 08:35 33.493706 -116.531467 89 28232ft 506kts
05-Nov-18 08:36 33.491429 -116.361426 88 29674ft 510kts
05-Nov-18 08:37 33.488800 -116.192758 89 30907ft 508kts
05-Nov-18 08:38 33.492277 -116.024848 77 30913ft 502kts
05-Nov-18 08:39 33.534630 -115.867074 65 30916ft 496kts
05-Nov-18 08:40 33.580680 -115.710491 66 30916ft 497kts
05-Nov-18 08:41 33.616313 -115.550238 81 30912ft 504kts
05-Nov-18 08:42 33.613448 -115.381158 90 30915ft 507kts
05-Nov-18 08:43 33.608376 -115.212607 89 30920ft 505kts
05-Nov-18 08:44 33.604270 -115.043895 89 30924ft 505kts
05-Nov-18 08:45 33.599469 -114.875360 89 30928ft 506kts
05-Nov-18 08:46 33.586544 -114.707263 100 30930ft 510kts
05-Nov-18 08:47 33.553438 -114.541852 101 30411ft 513kts
05-Nov-18 08:48 33.521161 -114.376521 101 29281ft 494kts
05-Nov-18 08:49 33.490127 -114.219292 101 27578ft 480kts
05-Nov-18 08:50 33.459573 -114.065987 101 25875ft 465kts
05-Nov-18 08:51 33.429703 -113.917300 101 23928ft 454kts
05-Nov-18 08:52 33.400916 -113.773459 101 22423ft 428kts
05-Nov-18 08:53 33.372880 -113.634963 102 21156ft 426kts
05-Nov-18 08:54 33.345189 -113.499523 102 19888ft 416kts
05-Nov-18 08:55 33.320541 -113.363854 99 19960ft 418kts
05-Nov-18 08:56 33.297233 -113.229361 99 18961ft 408kts
05-Nov-18 08:57 33.277958 -113.094950 97 17053ft 406kts
05-Nov-18 08:58 33.276602 -112.967456 84 15866ft 368kts
05-Nov-18 08:59 33.279943 -112.848245 82 14263ft 341kts
05-Nov-18 09:00 33.308305 -112.746701 60 12575ft 301kts
05-Nov-18 09:01 33.342147 -112.657992 61 10736ft 288kts
05-Nov-18 09:02 33.373257 -112.576390 62 9691ft 257kts
05-Nov-18 09:03 33.402448 -112.499353 65 8160ft 249kts
05-Nov-18 09:04 33.427266 -112.423120 79 6956ft 243kts
05-Nov-18 09:05 33.429078 -112.344063 90 5848ft 233kts
05-Nov-18 09:06 33.429002 -112.269353 90 4973ft 210kts
05-Nov-18 09:07 33.428964 -112.204571 90 4006ft 185kts
05-Nov-18 09:08 33.428931 -112.147688 89 3087ft 164kts
05-Nov-18 09:09 33.428901 -112.096472 90 2268ft 141kts
05-Nov-18 09:10 33.428830 -112.051559 89 1525ft 130kts
05-Nov-18 09:11 33.428839 -112.012276 81 1143ft 28kts
05-Nov-18 09:12 33.430039 -112.009125 44 1142ft 14kts
05-Nov-18 09:13 33.432037 -112.007559 84 1143ft 15kts
05-Nov-18 09:14 33.432827 -111.999533 90 1143ft 28kts
05-Nov-18 09:15 33.434015 -111.996025 295 1143ft 0kts

Navigation Log

Ident Type
Flight plan parsing failed, navigation log unavailable